Vilonia, AR

2:39 PM CST on February 01, 2015 (GMT -0600)
Little Rock Air Force Base | Change Station
CLOSE
Current Station
Airport
Location: Little Rock AFB,
Elevation: 312 ft
Nearby Weather Stations
Active Advisory: Lake Wind Advisory

Elev 312 ft 34.92 °N, 92.15 °W | Updated 21 minutes ago

Overcast
Overcast
50 °F
Feels Like 50 °F
N
13
Wind Variable Wind from West
Gusts 21 mph

Today
High -- | Low -- °F
--% Chance of Precip.
Yesterday
High -- | Low -- °F
Precip. -- in
7:07 AM 5:37 PM
Waxing Gibbous, 96% visible
Pressure 29.77 in
Visibility 10.0 miles
Clouds Mostly Cloudy 1800 ft
Overcast 2300 ft
Dew Point 46 °F
Humidity 87%
Rainfall 0.07 in
Snow Depth Not available.
UV 1 out of 12
Pollen 5.20 out of 12
Air Quality Not available.
Flu Activity Not available.
SPECI KLRF 012018Z AUTO 27011G18KT 10SM BKN018 OVC023 10/08 A2977 RMK AO2 CIG 016V021

More Conditions Fewer Conditions

Pressure 29.77 in
Visibility 10.0 miles
Clouds Mostly Cloudy 1800 ft
Overcast 2300 ft
Dew Point 46 °F
Humidity 87%
Rainfall 0.07 in
Snow Depth Not available.
UV 1 out of 12
Pollen 5.20 out of 12
Air Quality Not available.
Flu Activity Not available.
SPECI KLRF 012018Z AUTO 27011G18KT 10SM BKN018 OVC023 10/08 A2977 RMK AO2 CIG 016V021

More Conditions Fewer Conditions

10-Day Weather Forecast

Almanac

Astronomy

Feb. 01, 2015 Rise Set
Actual Time
Civil Twilight
Nautical Twilight
Astronomical Twilight
Moon
Length of Visible Light
Length of Day
Tomorrow will be .
, % of the Moon is Illuminated

Today's Extremes

State Highs State Lows

Community

WunderPhotos

Upload Photos

1,792,511 photos uploaded!

WunderBlogs® & News

Nearby

Air Quality

  Air Quality AQ Index Pollutant
Not available.

Snow Depth

Station Depth Elevation

Earthquake Activity

City Distance Mag. Time & Date
Minimum magnitude displayed is 2.5.

Coastal Water Temperatures

Place Temperature

Nearby Weather Stations